sensor_id;sensor_type;location;lat;lon;timestamp;temperature;humidity
40848;DHT22;26570;50.962;5.340;2023-02-21T01:03:05;8.50;99.90
40848;DHT22;26570;50.962;5.340;2023-02-21T01:06:10;8.60;99.90
40848;DHT22;26570;50.962;5.340;2023-02-21T01:09:15;8.60;99.90
40848;DHT22;26570;50.962;5.340;2023-02-21T01:12:18;8.60;99.90
40848;DHT22;26570;50.962;5.340;2023-02-21T01:15:22;8.50;99.90
40848;DHT22;26570;50.962;5.340;2023-02-21T01:19:08;8.50;99.90
40848;DHT22;26570;50.962;5.340;2023-02-21T01:22:14;8.70;99.90
40848;DHT22;26570;50.962;5.340;2023-02-21T01:25:40;8.60;99.90
40848;DHT22;26570;50.962;5.340;2023-02-21T01:28:45;8.50;99.90
40848;DHT22;26570;50.962;5.340;2023-02-21T01:32:11;8.50;99.90
40848;DHT22;26570;50.962;5.340;2023-02-21T01:35:15;8.60;99.90
40848;DHT22;26570;50.962;5.340;2023-02-21T01:38:19;8.80;99.90
40848;DHT22;26570;50.962;5.340;2023-02-21T01:41:23;8.80;99.90
40848;DHT22;26570;50.962;5.340;2023-02-21T01:44:46;8.90;99.90
40848;DHT22;26570;50.962;5.340;2023-02-21T01:47:52;8.70;99.90
40848;DHT22;26570;50.962;5.340;2023-02-21T01:50:58;8.70;99.90
40848;DHT22;26570;50.962;5.340;2023-02-21T01:54:03;8.60;99.90
40848;DHT22;26570;50.962;5.340;2023-02-21T01:57:07;8.60;99.90
40848;DHT22;26570;50.962;5.340;2023-02-21T02:00:13;8.50;99.90
40848;DHT22;26570;50.962;5.340;2023-02-21T02:03:19;8.50;99.90
40848;DHT22;26570;50.962;5.340;2023-02-21T02:06:23;8.70;99.90
40848;DHT22;26570;50.962;5.340;2023-02-21T02:09:49;8.50;99.90
40848;DHT22;26570;50.962;5.340;2023-02-21T02:32:45;8.60;99.90
40848;DHT22;26570;50.962;5.340;2023-02-21T02:35:47;8.60;99.90
40848;DHT22;26570;50.962;5.340;2023-02-21T02:39:29;8.70;99.90
40848;DHT22;26570;50.962;5.340;2023-02-21T02:45:50;8.60;99.90
40848;DHT22;26570;50.962;5.340;2023-02-21T02:52:10;8.60;99.90
40848;DHT22;26570;50.962;5.340;2023-02-21T02:54:59;8.50;99.90
40848;DHT22;26570;50.962;5.340;2023-02-21T02:57:48;8.50;99.90
40848;DHT22;26570;50.962;5.340;2023-02-21T03:00:36;8.60;99.90
40848;DHT22;26570;50.962;5.340;2023-02-21T03:04:05;8.60;99.90
40848;DHT22;26570;50.962;5.340;2023-02-21T03:10:52;8.40;99.90
40848;DHT22;26570;50.962;5.340;2023-02-21T03:16:32;8.50;99.90
40848;DHT22;26570;50.962;5.340;2023-02-21T03:19:39;8.50;99.90
40848;DHT22;26570;50.962;5.340;2023-02-21T03:22:27;8.50;99.90
40848;DHT22;26570;50.962;5.340;2023-02-21T03:25:14;8.50;99.90
40848;DHT22;26570;50.962;5.340;2023-02-21T03:28:24;8.60;99.90
40848;DHT22;26570;50.962;5.340;2023-02-21T03:32:01;8.40;99.90
40848;DHT22;26570;50.962;5.340;2023-02-21T03:34:55;8.50;99.90
40848;DHT22;26570;50.962;5.340;2023-02-21T03:37:43;8.60;99.90
40848;DHT22;26570;50.962;5.340;2023-02-21T03:40:31;8.70;99.90
40848;DHT22;26570;50.962;5.340;2023-02-21T03:43:17;8.60;99.90
40848;DHT22;26570;50.962;5.340;2023-02-21T03:46:02;8.50;99.90
40848;DHT22;26570;50.962;5.340;2023-02-21T03:48:47;8.60;99.90
40848;DHT22;26570;50.962;5.340;2023-02-21T03:51:33;8.40;99.90
40848;DHT22;26570;50.962;5.340;2023-02-21T03:54:21;8.60;99.90
40848;DHT22;26570;50.962;5.340;2023-02-21T03:57:06;8.70;99.90
40848;DHT22;26570;50.962;5.340;2023-02-21T03:59:52;8.70;99.90
40848;DHT22;26570;50.962;5.340;2023-02-21T04:02:59;8.70;99.90
40848;DHT22;26570;50.962;5.340;2023-02-21T04:05:45;8.70;99.90
40848;DHT22;26570;50.962;5.340;2023-02-21T04:08:30;8.60;99.90
40848;DHT22;26570;50.962;5.340;2023-02-21T04:11:19;8.40;99.90
40848;DHT22;26570;50.962;5.340;2023-02-21T04:14:04;8.40;99.90
40848;DHT22;26570;50.962;5.340;2023-02-21T04:16:50;8.40;99.90
40848;DHT22;26570;50.962;5.340;2023-02-21T04:19:35;8.40;99.90
40848;DHT22;26570;50.962;5.340;2023-02-21T04:22:21;8.60;99.90
40848;DHT22;26570;50.962;5.340;2023-02-21T04:25:07;8.60;99.90
40848;DHT22;26570;50.962;5.340;2023-02-21T04:27:52;8.60;99.90
40848;DHT22;26570;50.962;5.340;2023-02-21T04:30:38;8.60;99.90
40848;DHT22;26570;50.962;5.340;2023-02-21T04:33:23;8.70;99.90
40848;DHT22;26570;50.962;5.340;2023-02-21T04:36:08;8.60;99.90
40848;DHT22;26570;50.962;5.340;2023-02-21T04:38:54;8.50;99.90
40848;DHT22;26570;50.962;5.340;2023-02-21T04:41:41;8.50;99.90
40848;DHT22;26570;50.962;5.340;2023-02-21T04:44:27;8.50;99.90
40848;DHT22;26570;50.962;5.340;2023-02-21T04:47:12;8.50;99.90
40848;DHT22;26570;50.962;5.340;2023-02-21T04:49:58;8.40;99.90
40848;DHT22;26570;50.962;5.340;2023-02-21T04:53:08;8.40;99.90
40848;DHT22;26570;50.962;5.340;2023-02-21T04:56:18;8.20;99.90
40848;DHT22;26570;50.962;5.340;2023-02-21T04:59:04;8.20;99.90
40848;DHT22;26570;50.962;5.340;2023-02-21T05:01:52;8.30;99.90
40848;DHT22;26570;50.962;5.340;2023-02-21T05:04:38;8.40;99.90
40848;DHT22;26570;50.962;5.340;2023-02-21T05:07:45;8.40;99.90
40848;DHT22;26570;50.962;5.340;2023-02-21T05:10:36;8.40;99.90
40848;DHT22;26570;50.962;5.340;2023-02-21T05:13:22;8.40;99.90
40848;DHT22;26570;50.962;5.340;2023-02-21T05:16:07;8.50;99.90
40848;DHT22;26570;50.962;5.340;2023-02-21T05:18:53;8.60;99.90
40848;DHT22;26570;50.962;5.340;2023-02-21T05:21:39;8.50;99.90
40848;DHT22;26570;50.962;5.340;2023-02-21T05:24:25;8.20;99.90
40848;DHT22;26570;50.962;5.340;2023-02-21T05:27:10;8.20;99.90
40848;DHT22;26570;50.962;5.340;2023-02-21T05:30:22;8.20;99.90
40848;DHT22;26570;50.962;5.340;2023-02-21T05:33:10;8.20;99.90
40848;DHT22;26570;50.962;5.340;2023-02-21T05:36:17;8.20;99.90
40848;DHT22;26570;50.962;5.340;2023-02-21T05:39:03;8.30;99.90
40848;DHT22;26570;50.962;5.340;2023-02-21T05:41:50;8.20;99.90
40848;DHT22;26570;50.962;5.340;2023-02-21T05:44:35;8.20;99.90
40848;DHT22;26570;50.962;5.340;2023-02-21T05:47:20;8.10;99.90
40848;DHT22;26570;50.962;5.340;2023-02-21T05:50:06;8.00;99.90
40848;DHT22;26570;50.962;5.340;2023-02-21T05:52:52;8.00;99.90
40848;DHT22;26570;50.962;5.340;2023-02-21T05:55:59;8.00;99.90
40848;DHT22;26570;50.962;5.340;2023-02-21T05:58:44;8.10;99.90
40848;DHT22;26570;50.962;5.340;2023-02-21T06:01:29;8.20;99.90
40848;DHT22;26570;50.962;5.340;2023-02-21T06:04:15;8.20;99.90
40848;DHT22;26570;50.962;5.340;2023-02-21T06:07:03;8.20;99.90
40848;DHT22;26570;50.962;5.340;2023-02-21T06:09:48;8.10;99.90
40848;DHT22;26570;50.962;5.340;2023-02-21T06:12:34;8.10;99.90
40848;DHT22;26570;50.962;5.340;2023-02-21T06:15:20;8.00;99.90
40848;DHT22;26570;50.962;5.340;2023-02-21T06:18:05;8.00;99.90
40848;DHT22;26570;50.962;5.340;2023-02-21T06:20:50;8.10;99.90
40848;DHT22;26570;50.962;5.340;2023-02-21T06:23:35;8.10;99.90
40848;DHT22;26570;50.962;5.340;2023-02-21T06:26:21;7.70;99.90
40848;DHT22;26570;50.962;5.340;2023-02-21T06:29:07;8.10;99.90
40848;DHT22;26570;50.962;5.340;2023-02-21T06:31:58;8.20;99.90
40848;DHT22;26570;50.962;5.340;2023-02-21T06:34:44;8.20;99.90
40848;DHT22;26570;50.962;5.340;2023-02-21T06:37:29;8.30;99.90
40848;DHT22;26570;50.962;5.340;2023-02-21T06:40:14;8.30;99.90
40848;DHT22;26570;50.962;5.340;2023-02-21T06:42:59;8.40;99.90
40848;DHT22;26570;50.962;5.340;2023-02-21T06:46:07;8.30;99.90
40848;DHT22;26570;50.962;5.340;2023-02-21T06:48:52;8.40;99.90
40848;DHT22;26570;50.962;5.340;2023-02-21T06:51:39;8.40;99.90
40848;DHT22;26570;50.962;5.340;2023-02-21T06:54:25;8.30;99.90
40848;DHT22;26570;50.962;5.340;2023-02-21T06:57:10;8.30;99.90
40848;DHT22;26570;50.962;5.340;2023-02-21T06:59:56;8.20;99.90
40848;DHT22;26570;50.962;5.340;2023-02-21T07:02:41;8.30;99.90
40848;DHT22;26570;50.962;5.340;2023-02-21T07:05:29;8.40;99.90
40848;DHT22;26570;50.962;5.340;2023-02-21T07:08:18;8.40;99.90
40848;DHT22;26570;50.962;5.340;2023-02-21T07:11:09;8.30;99.90
40848;DHT22;26570;50.962;5.340;2023-02-21T07:13:54;8.20;99.90
40848;DHT22;26570;50.962;5.340;2023-02-21T07:17:02;8.10;99.90
40848;DHT22;26570;50.962;5.340;2023-02-21T07:20:10;8.10;99.90
40848;DHT22;26570;50.962;5.340;2023-02-21T07:22:58;8.10;99.90
40848;DHT22;26570;50.962;5.340;2023-02-21T07:25:43;8.30;99.90
40848;DHT22;26570;50.962;5.340;2023-02-21T07:28:28;8.10;99.90
40848;DHT22;26570;50.962;5.340;2023-02-21T07:31:13;8.30;99.90
40848;DHT22;26570;50.962;5.340;2023-02-21T07:33:59;8.20;99.90
40848;DHT22;26570;50.962;5.340;2023-02-21T07:36:44;8.20;99.90
40848;DHT22;26570;50.962;5.340;2023-02-21T07:39:29;8.20;99.90
40848;DHT22;26570;50.962;5.340;2023-02-21T07:42:14;8.30;99.90
40848;DHT22;26570;50.962;5.340;2023-02-21T07:45:00;8.50;99.90
40848;DHT22;26570;50.962;5.340;2023-02-21T07:47:45;8.60;99.90
40848;DHT22;26570;50.962;5.340;2023-02-21T07:50:31;8.60;99.90
40848;DHT22;26570;50.962;5.340;2023-02-21T07:53:16;8.50;99.90
40848;DHT22;26570;50.962;5.340;2023-02-21T07:56:02;8.30;99.90
40848;DHT22;26570;50.962;5.340;2023-02-21T07:58:47;8.10;99.90
40848;DHT22;26570;50.962;5.340;2023-02-21T08:01:33;8.00;99.90
40848;DHT22;26570;50.962;5.340;2023-02-21T08:04:18;8.10;99.90
40848;DHT22;26570;50.962;5.340;2023-02-21T08:07:05;8.20;99.90
40848;DHT22;26570;50.962;5.340;2023-02-21T08:10:22;8.20;99.90
40848;DHT22;26570;50.962;5.340;2023-02-21T08:13:08;8.40;99.90
40848;DHT22;26570;50.962;5.340;2023-02-21T08:15:53;8.50;99.90
40848;DHT22;26570;50.962;5.340;2023-02-21T08:18:38;8.50;99.90
40848;DHT22;26570;50.962;5.340;2023-02-21T08:21:47;8.60;99.90
40848;DHT22;26570;50.962;5.340;2023-02-21T08:24:32;8.60;99.90
40848;DHT22;26570;50.962;5.340;2023-02-21T08:27:18;8.60;99.90
40848;DHT22;26570;50.962;5.340;2023-02-21T08:30:03;8.70;99.90
40848;DHT22;26570;50.962;5.340;2023-02-21T08:33:10;8.60;99.90
40848;DHT22;26570;50.962;5.340;2023-02-21T08:35:56;8.60;99.90
40848;DHT22;26570;50.962;5.340;2023-02-21T08:38:41;8.60;99.90
40848;DHT22;26570;50.962;5.340;2023-02-21T08:41:41;8.50;99.90
40848;DHT22;26570;50.962;5.340;2023-02-21T08:44:48;8.50;99.90
40848;DHT22;26570;50.962;5.340;2023-02-21T08:47:57;8.70;99.90
40848;DHT22;26570;50.962;5.340;2023-02-21T08:50:43;8.60;99.90
40848;DHT22;26570;50.962;5.340;2023-02-21T08:53:27;8.70;99.90
40848;DHT22;26570;50.962;5.340;2023-02-21T08:56:35;8.70;99.90
40848;DHT22;26570;50.962;5.340;2023-02-21T08:59:21;9.00;99.90
40848;DHT22;26570;50.962;5.340;2023-02-21T09:02:06;9.00;99.90
40848;DHT22;26570;50.962;5.340;2023-02-21T09:04:56;9.00;99.90
40848;DHT22;26570;50.962;5.340;2023-02-21T09:07:41;9.20;99.90
40848;DHT22;26570;50.962;5.340;2023-02-21T09:10:28;9.40;99.90
40848;DHT22;26570;50.962;5.340;2023-02-21T09:13:13;9.40;99.90
40848;DHT22;26570;50.962;5.340;2023-02-21T09:16:00;9.20;99.90
40848;DHT22;26570;50.962;5.340;2023-02-21T09:18:56;9.30;99.90
40848;DHT22;26570;50.962;5.340;2023-02-21T09:22:07;9.10;99.90
40848;DHT22;26570;50.962;5.340;2023-02-21T09:24:52;9.10;99.90
40848;DHT22;26570;50.962;5.340;2023-02-21T09:27:41;9.10;99.90
40848;DHT22;26570;50.962;5.340;2023-02-21T09:30:26;8.90;99.90
40848;DHT22;26570;50.962;5.340;2023-02-21T09:33:13;9.00;99.90
40848;DHT22;26570;50.962;5.340;2023-02-21T09:35:59;9.10;99.90
40848;DHT22;26570;50.962;5.340;2023-02-21T09:38:44;9.10;99.90
40848;DHT22;26570;50.962;5.340;2023-02-21T09:41:30;9.10;99.90
40848;DHT22;26570;50.962;5.340;2023-02-21T09:44:18;9.20;99.90
40848;DHT22;26570;50.962;5.340;2023-02-21T09:47:30;9.10;99.90
40848;DHT22;26570;50.962;5.340;2023-02-21T09:50:20;9.00;99.90
40848;DHT22;26570;50.962;5.340;2023-02-21T09:53:07;8.90;99.90
40848;DHT22;26570;50.962;5.340;2023-02-21T09:55:56;8.90;99.90
40848;DHT22;26570;50.962;5.340;2023-02-21T09:58:43;9.10;99.90
40848;DHT22;26570;50.962;5.340;2023-02-21T10:02:03;9.20;99.90
40848;DHT22;26570;50.962;5.340;2023-02-21T10:08:48;9.40;99.90
40848;DHT22;26570;50.962;5.340;2023-02-21T10:11:42;9.40;99.90
40848;DHT22;26570;50.962;5.340;2023-02-21T10:21:00;9.40;99.90
40848;DHT22;26570;50.962;5.340;2023-02-21T10:23:50;9.30;99.90
40848;DHT22;26570;50.962;5.340;2023-02-21T10:26:38;9.50;99.90
40848;DHT22;26570;50.962;5.340;2023-02-21T10:29:40;9.40;99.90
40848;DHT22;26570;50.962;5.340;2023-02-21T10:32:50;9.70;99.90
40848;DHT22;26570;50.962;5.340;2023-02-21T10:35:38;9.70;99.90
40848;DHT22;26570;50.962;5.340;2023-02-21T10:38:26;9.70;99.90
40848;DHT22;26570;50.962;5.340;2023-02-21T10:41:14;9.70;99.90
40848;DHT22;26570;50.962;5.340;2023-02-21T10:44:20;9.70;99.90
40848;DHT22;26570;50.962;5.340;2023-02-21T10:47:19;9.60;99.90
40848;DHT22;26570;50.962;5.340;2023-02-21T10:50:10;9.50;99.90
40848;DHT22;26570;50.962;5.340;2023-02-21T10:52:58;9.50;99.90
40848;DHT22;26570;50.962;5.340;2023-02-21T10:55:43;9.70;99.90
40848;DHT22;26570;50.962;5.340;2023-02-21T10:58:31;9.70;99.90
40848;DHT22;26570;50.962;5.340;2023-02-21T11:07:08;10.20;99.90
40848;DHT22;26570;50.962;5.340;2023-02-21T11:10:34;10.10;99.90
40848;DHT22;26570;50.962;5.340;2023-02-21T11:13:23;9.90;99.90
40848;DHT22;26570;50.962;5.340;2023-02-21T11:16:18;10.00;99.90
40848;DHT22;26570;50.962;5.340;2023-02-21T11:19:12;10.10;99.90
40848;DHT22;26570;50.962;5.340;2023-02-21T11:22:00;9.90;99.90
40848;DHT22;26570;50.962;5.340;2023-02-21T11:24:52;9.80;99.90
40848;DHT22;26570;50.962;5.340;2023-02-21T11:27:39;9.80;99.90
40848;DHT22;26570;50.962;5.340;2023-02-21T11:30:24;9.80;99.90
40848;DHT22;26570;50.962;5.340;2023-02-21T11:33:10;9.90;99.90
40848;DHT22;26570;50.962;5.340;2023-02-21T11:36:19;10.10;99.90
40848;DHT22;26570;50.962;5.340;2023-02-21T11:39:23;10.10;99.90
40848;DHT22;26570;50.962;5.340;2023-02-21T11:45:20;10.10;99.90
40848;DHT22;26570;50.962;5.340;2023-02-21T11:48:13;10.10;99.90
40848;DHT22;26570;50.962;5.340;2023-02-21T11:51:17;10.20;99.90
40848;DHT22;26570;50.962;5.340;2023-02-21T11:54:08;10.10;99.90
40848;DHT22;26570;50.962;5.340;2023-02-21T11:56:57;10.20;99.90
40848;DHT22;26570;50.962;5.340;2023-02-21T12:23:27;10.30;99.90
40848;DHT22;26570;50.962;5.340;2023-02-21T12:26:31;10.30;99.90
40848;DHT22;26570;50.962;5.340;2023-02-21T12:35:29;10.20;99.90
40848;DHT22;26570;50.962;5.340;2023-02-21T12:50:47;10.10;99.90
40848;DHT22;26570;50.962;5.340;2023-02-21T12:56:27;9.80;99.90
40848;DHT22;26570;50.962;5.340;2023-02-21T12:59:23;9.60;99.90
40848;DHT22;26570;50.962;5.340;2023-02-21T13:02:23;9.70;99.90
40848;DHT22;26570;50.962;5.340;2023-02-21T13:05:17;9.50;99.90
40848;DHT22;26570;50.962;5.340;2023-02-21T13:08:31;9.60;99.90
40848;DHT22;26570;50.962;5.340;2023-02-21T13:11:44;9.60;99.90
40848;DHT22;26570;50.962;5.340;2023-02-21T13:17:25;9.90;99.90
40848;DHT22;26570;50.962;5.340;2023-02-21T13:20:20;9.70;99.90
40848;DHT22;26570;50.962;5.340;2023-02-21T13:26:30;9.90;99.90
40848;DHT22;26570;50.962;5.340;2023-02-21T13:29:22;9.70;99.90
40848;DHT22;26570;50.962;5.340;2023-02-21T13:32:12;9.90;99.90
40848;DHT22;26570;50.962;5.340;2023-02-21T13:35:02;9.90;99.90
40848;DHT22;26570;50.962;5.340;2023-02-21T13:38:18;9.90;99.90
40848;DHT22;26570;50.962;5.340;2023-02-21T13:41:31;9.70;99.90
40848;DHT22;26570;50.962;5.340;2023-02-21T13:44:31;9.60;99.90
40848;DHT22;26570;50.962;5.340;2023-02-21T13:47:26;9.60;99.90
40848;DHT22;26570;50.962;5.340;2023-02-21T13:53:32;9.70;99.90
40848;DHT22;26570;50.962;5.340;2023-02-21T13:56:45;9.80;99.90
40848;DHT22;26570;50.962;5.340;2023-02-21T13:59:34;9.60;99.90
40848;DHT22;26570;50.962;5.340;2023-02-21T14:02:27;9.70;99.90
40848;DHT22;26570;50.962;5.340;2023-02-21T14:05:17;9.40;99.90
40848;DHT22;26570;50.962;5.340;2023-02-21T14:08:05;9.60;99.90
40848;DHT22;26570;50.962;5.340;2023-02-21T14:17:09;9.90;99.90
40848;DHT22;26570;50.962;5.340;2023-02-21T14:19:59;9.90;99.90
40848;DHT22;26570;50.962;5.340;2023-02-21T14:22:49;9.90;99.90
40848;DHT22;26570;50.962;5.340;2023-02-21T14:25:34;9.90;99.90
40848;DHT22;26570;50.962;5.340;2023-02-21T14:29:01;9.90;99.90
40848;DHT22;26570;50.962;5.340;2023-02-21T14:37:41;10.00;99.90
40848;DHT22;26570;50.962;5.340;2023-02-21T14:40:39;10.10;99.90
40848;DHT22;26570;50.962;5.340;2023-02-21T14:53:59;10.20;99.90
40848;DHT22;26570;50.962;5.340;2023-02-21T15:03:21;10.20;99.90
40848;DHT22;26570;50.962;5.340;2023-02-21T15:06:18;10.20;99.90
40848;DHT22;26570;50.962;5.340;2023-02-21T15:09:18;10.30;99.90
40848;DHT22;26570;50.962;5.340;2023-02-21T15:12:09;10.30;99.90
40848;DHT22;26570;50.962;5.340;2023-02-21T15:14:57;10.20;99.90
40848;DHT22;26570;50.962;5.340;2023-02-21T15:17:44;10.30;99.90
40848;DHT22;26570;50.962;5.340;2023-02-21T15:20:41;10.30;99.90
40848;DHT22;26570;50.962;5.340;2023-02-21T15:23:26;10.20;99.90
40848;DHT22;26570;50.962;5.340;2023-02-21T15:26:36;10.20;99.90
40848;DHT22;26570;50.962;5.340;2023-02-21T15:29:21;10.20;99.90
40848;DHT22;26570;50.962;5.340;2023-02-21T15:32:06;10.20;99.90
40848;DHT22;26570;50.962;5.340;2023-02-21T15:34:55;10.30;99.90
40848;DHT22;26570;50.962;5.340;2023-02-21T15:37:42;10.40;99.90
40848;DHT22;26570;50.962;5.340;2023-02-21T15:40:29;10.30;99.90
40848;DHT22;26570;50.962;5.340;2023-02-21T15:43:34;10.30;99.90
40848;DHT22;26570;50.962;5.340;2023-02-21T15:46:28;10.40;99.90
40848;DHT22;26570;50.962;5.340;2023-02-21T15:49:23;10.10;99.90
40848;DHT22;26570;50.962;5.340;2023-02-21T15:52:46;10.50;99.90
40848;DHT22;26570;50.962;5.340;2023-02-21T15:56:23;10.50;99.90
40848;DHT22;26570;50.962;5.340;2023-02-21T15:59:40;10.40;99.90
40848;DHT22;26570;50.962;5.340;2023-02-21T16:02:25;10.10;99.90
40848;DHT22;26570;50.962;5.340;2023-02-21T16:05:28;10.10;99.90
40848;DHT22;26570;50.962;5.340;2023-02-21T16:08:16;10.10;99.90
40848;DHT22;26570;50.962;5.340;2023-02-21T16:11:02;10.00;99.90
40848;DHT22;26570;50.962;5.340;2023-02-21T16:13:48;9.90;99.90
40848;DHT22;26570;50.962;5.340;2023-02-21T16:16:36;9.90;99.90
40848;DHT22;26570;50.962;5.340;2023-02-21T16:19:22;9.90;99.90
40848;DHT22;26570;50.962;5.340;2023-02-21T16:22:22;10.00;99.90
40848;DHT22;26570;50.962;5.340;2023-02-21T16:28:39;10.20;99.90
40848;DHT22;26570;50.962;5.340;2023-02-21T16:31:29;10.10;99.90
40848;DHT22;26570;50.962;5.340;2023-02-21T16:34:15;10.20;99.90
40848;DHT22;26570;50.962;5.340;2023-02-21T16:37:10;10.30;99.90
40848;DHT22;26570;50.962;5.340;2023-02-21T16:39:59;10.30;99.90
40848;DHT22;26570;50.962;5.340;2023-02-21T16:42:52;10.20;99.90
40848;DHT22;26570;50.962;5.340;2023-02-21T16:45:41;10.00;99.90
40848;DHT22;26570;50.962;5.340;2023-02-21T16:48:29;9.80;99.90
40848;DHT22;26570;50.962;5.340;2023-02-21T16:51:20;9.70;99.90
40848;DHT22;26570;50.962;5.340;2023-02-21T16:54:08;9.60;99.90
40848;DHT22;26570;50.962;5.340;2023-02-21T16:56:55;9.60;99.90
40848;DHT22;26570;50.962;5.340;2023-02-21T17:00:08;9.60;99.90
40848;DHT22;26570;50.962;5.340;2023-02-21T17:02:56;9.60;99.90
40848;DHT22;26570;50.962;5.340;2023-02-21T17:06:06;9.60;99.90
40848;DHT22;26570;50.962;5.340;2023-02-21T17:08:53;9.60;99.90
40848;DHT22;26570;50.962;5.340;2023-02-21T17:12:06;9.60;99.90
40848;DHT22;26570;50.962;5.340;2023-02-21T17:14:53;9.40;99.90
40848;DHT22;26570;50.962;5.340;2023-02-21T17:17:41;9.50;99.90
40848;DHT22;26570;50.962;5.340;2023-02-21T17:20:28;9.60;99.90
40848;DHT22;26570;50.962;5.340;2023-02-21T17:23:13;9.80;99.90
40848;DHT22;26570;50.962;5.340;2023-02-21T17:25:59;9.60;99.90
40848;DHT22;26570;50.962;5.340;2023-02-21T17:28:44;9.50;99.90
40848;DHT22;26570;50.962;5.340;2023-02-21T17:31:31;9.40;99.90
40848;DHT22;26570;50.962;5.340;2023-02-21T17:34:16;9.40;99.90
40848;DHT22;26570;50.962;5.340;2023-02-21T17:37:04;9.30;99.90
40848;DHT22;26570;50.962;5.340;2023-02-21T17:39:54;9.30;99.90
40848;DHT22;26570;50.962;5.340;2023-02-21T17:43:03;9.40;99.90
40848;DHT22;26570;50.962;5.340;2023-02-21T17:45:52;9.30;99.90
40848;DHT22;26570;50.962;5.340;2023-02-21T17:48:40;9.30;99.90
40848;DHT22;26570;50.962;5.340;2023-02-21T17:51:50;9.60;99.90
40848;DHT22;26570;50.962;5.340;2023-02-21T17:54:39;9.40;99.90
40848;DHT22;26570;50.962;5.340;2023-02-21T17:57:27;9.50;99.90
40848;DHT22;26570;50.962;5.340;2023-02-21T18:00:22;9.40;99.90
40848;DHT22;26570;50.962;5.340;2023-02-21T18:03:38;9.30;99.90
40848;DHT22;26570;50.962;5.340;2023-02-21T18:06:23;9.30;99.90
40848;DHT22;26570;50.962;5.340;2023-02-21T18:09:08;9.30;99.90
40848;DHT22;26570;50.962;5.340;2023-02-21T18:11:56;9.20;99.90
40848;DHT22;26570;50.962;5.340;2023-02-21T18:14:41;9.20;99.90
40848;DHT22;26570;50.962;5.340;2023-02-21T18:17:26;9.10;99.90
40848;DHT22;26570;50.962;5.340;2023-02-21T18:20:12;9.00;99.90
40848;DHT22;26570;50.962;5.340;2023-02-21T18:22:59;9.20;99.90
40848;DHT22;26570;50.962;5.340;2023-02-21T18:25:47;9.20;99.90
40848;DHT22;26570;50.962;5.340;2023-02-21T18:28:33;9.10;99.90
40848;DHT22;26570;50.962;5.340;2023-02-21T18:31:19;8.90;99.90
40848;DHT22;26570;50.962;5.340;2023-02-21T18:34:04;8.80;99.90
40848;DHT22;26570;50.962;5.340;2023-02-21T18:36:52;8.80;99.90
40848;DHT22;26570;50.962;5.340;2023-02-21T18:39:38;8.60;99.90
40848;DHT22;26570;50.962;5.340;2023-02-21T18:42:23;8.50;99.90
40848;DHT22;26570;50.962;5.340;2023-02-21T18:45:09;8.80;99.90
40848;DHT22;26570;50.962;5.340;2023-02-21T18:47:55;8.70;99.90
40848;DHT22;26570;50.962;5.340;2023-02-21T18:51:03;8.60;99.90
40848;DHT22;26570;50.962;5.340;2023-02-21T18:53:52;8.50;99.90
40848;DHT22;26570;50.962;5.340;2023-02-21T18:56:38;8.40;99.90
40848;DHT22;26570;50.962;5.340;2023-02-21T18:59:28;8.50;99.90
40848;DHT22;26570;50.962;5.340;2023-02-21T19:02:16;8.40;99.90
40848;DHT22;26570;50.962;5.340;2023-02-21T19:05:02;8.40;99.90
40848;DHT22;26570;50.962;5.340;2023-02-21T19:07:47;8.40;99.90
40848;DHT22;26570;50.962;5.340;2023-02-21T19:10:32;8.40;99.90
40848;DHT22;26570;50.962;5.340;2023-02-21T19:13:18;8.30;99.90
40848;DHT22;26570;50.962;5.340;2023-02-21T19:16:04;8.20;99.90
40848;DHT22;26570;50.962;5.340;2023-02-21T19:18:52;8.20;99.90
40848;DHT22;26570;50.962;5.340;2023-02-21T19:21:37;8.00;99.90
40848;DHT22;26570;50.962;5.340;2023-02-21T19:24:22;8.00;99.90
40848;DHT22;26570;50.962;5.340;2023-02-21T19:27:08;8.10;99.90
40848;DHT22;26570;50.962;5.340;2023-02-21T19:29:53;8.00;99.90
40848;DHT22;26570;50.962;5.340;2023-02-21T19:32:38;8.00;99.90
40848;DHT22;26570;50.962;5.340;2023-02-21T19:35:46;7.90;99.90
40848;DHT22;26570;50.962;5.340;2023-02-21T19:38:31;8.00;99.90
40848;DHT22;26570;50.962;5.340;2023-02-21T19:41:17;8.00;99.90
40848;DHT22;26570;50.962;5.340;2023-02-21T19:44:03;7.90;99.90
40848;DHT22;26570;50.962;5.340;2023-02-21T19:46:49;8.00;99.90
40848;DHT22;26570;50.962;5.340;2023-02-21T19:49:34;8.00;99.90
40848;DHT22;26570;50.962;5.340;2023-02-21T19:52:19;8.20;99.90
40848;DHT22;26570;50.962;5.340;2023-02-21T19:55:05;8.10;99.90
40848;DHT22;26570;50.962;5.340;2023-02-21T19:57:51;8.00;99.90
40848;DHT22;26570;50.962;5.340;2023-02-21T20:00:37;8.00;99.90
40848;DHT22;26570;50.962;5.340;2023-02-21T20:03:25;7.90;99.90
40848;DHT22;26570;50.962;5.340;2023-02-21T20:06:34;7.90;99.90
40848;DHT22;26570;50.962;5.340;2023-02-21T20:09:21;7.90;99.90
40848;DHT22;26570;50.962;5.340;2023-02-21T20:12:07;7.90;99.90
40848;DHT22;26570;50.962;5.340;2023-02-21T20:14:52;7.90;99.90
40848;DHT22;26570;50.962;5.340;2023-02-21T20:17:39;8.00;99.90
40848;DHT22;26570;50.962;5.340;2023-02-21T20:20:26;8.00;99.90
40848;DHT22;26570;50.962;5.340;2023-02-21T20:23:12;7.90;99.90
40848;DHT22;26570;50.962;5.340;2023-02-21T20:26:00;8.10;99.90
40848;DHT22;26570;50.962;5.340;2023-02-21T20:29:08;8.10;99.90
40848;DHT22;26570;50.962;5.340;2023-02-21T20:31:53;8.00;99.90
40848;DHT22;26570;50.962;5.340;2023-02-21T20:34:42;8.00;99.90
40848;DHT22;26570;50.962;5.340;2023-02-21T20:37:30;8.00;99.90
40848;DHT22;26570;50.962;5.340;2023-02-21T20:40:16;7.90;99.90
40848;DHT22;26570;50.962;5.340;2023-02-21T20:43:03;7.90;99.90
40848;DHT22;26570;50.962;5.340;2023-02-21T20:45:48;7.90;99.90
40848;DHT22;26570;50.962;5.340;2023-02-21T20:48:36;7.90;99.90
40848;DHT22;26570;50.962;5.340;2023-02-21T20:51:34;7.90;99.90
40848;DHT22;26570;50.962;5.340;2023-02-21T20:54:26;8.00;99.90
40848;DHT22;26570;50.962;5.340;2023-02-21T20:57:11;8.00;99.90
40848;DHT22;26570;50.962;5.340;2023-02-21T20:59:57;7.90;99.90
40848;DHT22;26570;50.962;5.340;2023-02-21T21:02:42;8.00;99.90
40848;DHT22;26570;50.962;5.340;2023-02-21T21:05:56;7.90;99.90
40848;DHT22;26570;50.962;5.340;2023-02-21T21:08:44;7.80;99.90
40848;DHT22;26570;50.962;5.340;2023-02-21T21:11:33;7.80;99.90
40848;DHT22;26570;50.962;5.340;2023-02-21T21:14:48;7.70;99.90
40848;DHT22;26570;50.962;5.340;2023-02-21T21:17:36;7.60;99.90
40848;DHT22;26570;50.962;5.340;2023-02-21T21:20:24;7.50;99.90
40848;DHT22;26570;50.962;5.340;2023-02-21T21:23:10;7.40;99.90
40848;DHT22;26570;50.962;5.340;2023-02-21T21:26:23;7.30;99.90
40848;DHT22;26570;50.962;5.340;2023-02-21T21:29:34;7.30;99.90
40848;DHT22;26570;50.962;5.340;2023-02-21T21:32:22;7.40;99.90
40848;DHT22;26570;50.962;5.340;2023-02-21T21:35:07;7.40;99.90
40848;DHT22;26570;50.962;5.340;2023-02-21T21:37:58;7.40;99.90
40848;DHT22;26570;50.962;5.340;2023-02-21T21:40:46;7.50;99.90
40848;DHT22;26570;50.962;5.340;2023-02-21T21:43:31;7.30;99.90
40848;DHT22;26570;50.962;5.340;2023-02-21T21:46:18;7.30;99.90
40848;DHT22;26570;50.962;5.340;2023-02-21T21:49:04;7.30;99.90